Time;durP1;ratioP1;P1;durP2;ratioP2;P2;SDS_P1;SDS_P2;PMS_P1;PMS_P2;Temp;Humidity;BMP_temperature;BMP_pressure;BME280_temperature;BME280_humidity;BME280_pressure;Samples;Min_cycle;Max_cycle;Signal;HPM_P1;HPM_P2
2022/10/31 00:01:00;;;;;;;;;;;13.90;99.90;;;;;;5056180;28;19929;-57
2022/10/31 00:03:27;;;;;;;;;;;13.80;99.90;;;;;;5056363;28;19938;-58
2022/10/31 00:05:54;;;;;;;;;;;13.80;99.90;;;;;;5056046;28;19929;-58
2022/10/31 00:08:22;;;;;;;;;;;13.80;99.90;;;;;;5055239;28;19929;-58
2022/10/31 00:10:48;;;;;;;;;;;13.80;99.90;;;;;;5059056;28;20022;-58
2022/10/31 00:13:15;;;;;;;;;;;13.80;99.90;;;;;;5059967;28;19970;-57
2022/10/31 00:15:42;;;;;;;;;;;13.70;99.90;;;;;;5059410;28;19936;-58
2022/10/31 00:18:09;;;;;;;;;;;13.80;99.90;;;;;;5059243;28;19928;-57
2022/10/31 00:20:36;;;;;;;;;;;13.70;99.90;;;;;;5057264;28;19936;-57
2022/10/31 00:23:03;;;;;;;;;;;13.70;99.90;;;;;;5059044;28;19939;-57
2022/10/31 00:25:34;;;;;;;;;;;13.70;99.90;;;;;;5058407;28;19928;-57
2022/10/31 00:28:00;;;;;;;;;;;13.70;99.90;;;;;;5058900;28;19928;-58
2022/10/31 00:30:27;;;;;;;;;;;13.70;99.90;;;;;;5055501;28;19929;-57
2022/10/31 00:32:54;;;;;;;;;;;13.70;99.90;;;;;;5059531;28;19932;-57
2022/10/31 00:35:20;;;;;;;;;;;13.70;99.90;;;;;;5058658;28;20578;-57
2022/10/31 00:37:47;;;;;;;;;;;13.60;99.90;;;;;;5059628;28;19929;-57
2022/10/31 00:40:14;;;;;;;;;;;13.60;99.90;;;;;;5057484;28;19929;-58
2022/10/31 00:42:42;;;;;;;;;;;13.60;99.90;;;;;;5058337;28;19933;-58
2022/10/31 00:45:09;;;;;;;;;;;13.60;99.90;;;;;;5059121;28;19932;-57
2022/10/31 00:47:36;;;;;;;;;;;13.60;99.90;;;;;;5058960;28;19933;-57
2022/10/31 00:50:02;;;;;;;;;;;13.50;99.90;;;;;;5057571;28;19936;-58
2022/10/31 00:52:29;;;;;;;;;;;13.50;99.90;;;;;;5059541;28;21130;-58
2022/10/31 00:54:56;;;;;;;;;;;13.50;99.90;;;;;;5059602;28;20018;-57
2022/10/31 00:57:22;;;;;;;;;;;13.50;99.90;;;;;;5059051;28;20667;-57
2022/10/31 00:59:50;;;;;;;;;;;13.50;99.90;;;;;;5059503;28;19929;-58
2022/10/31 01:02:17;;;;;;;;;;;13.50;99.90;;;;;;5059032;28;19933;-57
2022/10/31 01:04:44;;;;;;;;;;;13.40;99.90;;;;;;5057881;28;19928;-57
2022/10/31 01:07:12;;;;;;;;;;;13.40;99.90;;;;;;5058524;28;19936;-57
2022/10/31 01:09:38;;;;;;;;;;;13.50;99.90;;;;;;5057820;28;19963;-57
2022/10/31 01:12:05;;;;;;;;;;;13.40;99.90;;;;;;5059372;28;19933;-57
2022/10/31 01:14:32;;;;;;;;;;;13.40;99.90;;;;;;5059431;28;19929;-58
2022/10/31 01:16:59;;;;;;;;;;;13.40;99.90;;;;;;5058119;28;19933;-58
2022/10/31 01:19:26;;;;;;;;;;;13.40;99.90;;;;;;5058273;28;19929;-57
2022/10/31 01:21:54;;;;;;;;;;;13.40;99.90;;;;;;5056189;28;19933;-58
2022/10/31 01:24:21;;;;;;;;;;;13.40;99.90;;;;;;5058742;28;19936;-57
2022/10/31 01:26:48;;;;;;;;;;;13.40;99.90;;;;;;5059128;28;19929;-57
2022/10/31 01:29:14;;;;;;;;;;;13.40;99.90;;;;;;5058622;28;19936;-58
2022/10/31 01:31:41;;;;;;;;;;;13.40;99.90;;;;;;5057488;28;20426;-57
2022/10/31 01:34:13;;;;;;;;;;;13.40;99.90;;;;;;5057894;28;20296;-57
2022/10/31 01:36:39;;;;;;;;;;;13.40;99.90;;;;;;5058079;28;20564;-57
2022/10/31 01:39:07;;;;;;;;;;;13.40;99.90;;;;;;5058070;28;21135;-57
2022/10/31 01:41:35;;;;;;;;;;;13.40;99.90;;;;;;5057172;28;19955;-57
2022/10/31 01:44:02;;;;;;;;;;;13.40;99.90;;;;;;5058708;28;19929;-57
2022/10/31 01:46:31;;;;;;;;;;;13.40;99.90;;;;;;5056526;28;20406;-57
2022/10/31 01:48:59;;;;;;;;;;;13.40;99.90;;;;;;5054599;28;19928;-57
2022/10/31 01:51:30;;;;;;;;;;;13.40;99.90;;;;;;5056165;28;19939;-57
2022/10/31 01:53:59;;;;;;;;;;;13.40;99.90;;;;;;5056950;28;19936;-57
2022/10/31 01:56:26;;;;;;;;;;;13.40;99.90;;;;;;5057405;28;19940;-58
2022/10/31 01:58:53;;;;;;;;;;;13.40;99.90;;;;;;5058211;28;19929;-57
2022/10/31 02:01:20;;;;;;;;;;;13.30;99.90;;;;;;5058050;28;20348;-58
2022/10/31 02:03:47;;;;;;;;;;;13.30;99.90;;;;;;5057277;28;19934;-57
2022/10/31 02:06:19;;;;;;;;;;;13.30;99.90;;;;;;5057138;28;19935;-57
2022/10/31 02:08:49;;;;;;;;;;;13.30;99.90;;;;;;5058016;28;19928;-57
2022/10/31 02:11:16;;;;;;;;;;;13.30;99.90;;;;;;5057471;28;19933;-57
2022/10/31 02:13:45;;;;;;;;;;;13.30;99.90;;;;;;5057459;28;19929;-57
2022/10/31 02:16:12;;;;;;;;;;;13.30;99.90;;;;;;5056990;28;19929;-58
2022/10/31 02:18:39;;;;;;;;;;;13.30;99.90;;;;;;5058195;28;19928;-58
2022/10/31 02:21:10;;;;;;;;;;;13.30;99.90;;;;;;5057813;28;21031;-58
2022/10/31 02:23:52;;;;;;;;;;;13.30;99.90;;;;;;5057806;28;19933;-57
2022/10/31 02:26:28;;;;;;;;;;;13.20;99.90;;;;;;5039248;28;19933;-57
2022/10/31 02:29:08;;;;;;;;;;;13.20;99.90;;;;;;5057811;28;19936;-57
2022/10/31 02:31:42;;;;;;;;;;;13.20;99.90;;;;;;5056155;28;19933;-58
2022/10/31 02:34:13;;;;;;;;;;;13.20;99.90;;;;;;5058145;28;21164;-57
2022/10/31 02:36:43;;;;;;;;;;;13.20;99.90;;;;;;5057016;28;19929;-58
2022/10/31 02:39:12;;;;;;;;;;;13.20;99.90;;;;;;5057872;28;19928;-58
2022/10/31 02:41:45;;;;;;;;;;;13.10;99.90;;;;;;5056727;28;19932;-57
2022/10/31 02:44:16;;;;;;;;;;;13.20;99.90;;;;;;5057599;28;19928;-57
2022/10/31 02:46:47;;;;;;;;;;;13.10;99.90;;;;;;5056148;28;19940;-57
2022/10/31 02:49:18;;;;;;;;;;;13.10;99.90;;;;;;5057702;28;20416;-58
2022/10/31 02:51:46;;;;;;;;;;;13.10;99.90;;;;;;5055920;28;19940;-57
2022/10/31 02:54:20;;;;;;;;;;;13.10;99.90;;;;;;5057794;28;20538;-57
2022/10/31 02:56:48;;;;;;;;;;;13.00;99.90;;;;;;5055572;28;21406;-58
2022/10/31 02:59:15;;;;;;;;;;;13.00;99.90;;;;;;5055991;28;19929;-57
2022/10/31 03:01:50;;;;;;;;;;;13.00;99.90;;;;;;5057938;28;19939;-57
2022/10/31 03:04:27;;;;;;;;;;;13.00;99.90;;;;;;5056824;28;19928;-57
2022/10/31 03:06:58;;;;;;;;;;;13.00;99.90;;;;;;5055922;28;19928;-58
2022/10/31 03:09:26;;;;;;;;;;;12.90;99.90;;;;;;5056003;28;19933;-58
2022/10/31 03:11:57;;;;;;;;;;;13.00;99.90;;;;;;5057228;28;20407;-57
2022/10/31 03:14:27;;;;;;;;;;;12.90;99.90;;;;;;5055989;28;19936;-57
2022/10/31 03:16:56;;;;;;;;;;;12.90;99.90;;;;;;5055946;28;19928;-57
2022/10/31 03:19:24;;;;;;;;;;;12.90;99.90;;;;;;5057045;28;19958;-57
2022/10/31 03:21:54;;;;;;;;;;;12.90;99.90;;;;;;5055918;28;19932;-57
2022/10/31 03:24:22;;;;;;;;;;;12.90;99.90;;;;;;5056669;28;19936;-58
2022/10/31 03:26:52;;;;;;;;;;;12.90;99.90;;;;;;5056626;28;19929;-57
2022/10/31 03:29:21;;;;;;;;;;;12.90;99.90;;;;;;5056185;28;20121;-57
2022/10/31 03:31:50;;;;;;;;;;;12.90;99.90;;;;;;5055782;28;19933;-57
2022/10/31 03:34:20;;;;;;;;;;;12.80;99.90;;;;;;5055588;28;20340;-58
2022/10/31 03:36:47;;;;;;;;;;;12.80;99.90;;;;;;5053563;28;19928;-58
2022/10/31 03:39:15;;;;;;;;;;;12.80;99.90;;;;;;5055932;28;20761;-57
2022/10/31 03:41:44;;;;;;;;;;;12.80;99.90;;;;;;5056035;28;19943;-57
2022/10/31 03:44:13;;;;;;;;;;;12.70;99.90;;;;;;5056074;28;20022;-58
2022/10/31 03:46:40;;;;;;;;;;;12.70;99.90;;;;;;5055972;28;19935;-57
2022/10/31 03:49:06;;;;;;;;;;;12.70;99.90;;;;;;5055633;28;19936;-57
2022/10/31 03:51:39;;;;;;;;;;;12.80;99.90;;;;;;5056571;28;19933;-57
2022/10/31 03:54:09;;;;;;;;;;;12.70;99.90;;;;;;5055661;28;20340;-57
2022/10/31 03:56:37;;;;;;;;;;;12.70;99.90;;;;;;5055887;28;19936;-57
2022/10/31 03:59:06;;;;;;;;;;;12.70;99.90;;;;;;5056511;28;20366;-57
2022/10/31 04:01:35;;;;;;;;;;;12.70;99.90;;;;;;5054864;28;19932;-57
2022/10/31 04:04:02;;;;;;;;;;;12.70;99.90;;;;;;5055687;28;19928;-57
2022/10/31 04:06:30;;;;;;;;;;;12.70;99.90;;;;;;5056129;28;20403;-57
2022/10/31 04:09:01;;;;;;;;;;;12.70;99.90;;;;;;5055216;28;19929;-57
2022/10/31 04:11:29;;;;;;;;;;;12.70;99.90;;;;;;5054812;28;20414;-57
2022/10/31 04:13:56;;;;;;;;;;;12.70;99.90;;;;;;5056544;28;20297;-57
2022/10/31 04:16:24;;;;;;;;;;;12.60;99.90;;;;;;5056417;28;19928;-57
2022/10/31 04:18:50;;;;;;;;;;;12.60;99.90;;;;;;5055915;28;20876;-58
2022/10/31 04:21:17;;;;;;;;;;;12.50;99.90;;;;;;5055002;28;20917;-57
2022/10/31 04:23:44;;;;;;;;;;;12.40;99.90;;;;;;5054566;28;19933;-58
2022/10/31 04:26:12;;;;;;;;;;;12.20;99.90;;;;;;5055439;28;19933;-57
2022/10/31 04:28:39;;;;;;;;;;;12.10;99.90;;;;;;5055176;28;20600;-57
2022/10/31 04:31:06;;;;;;;;;;;12.00;99.90;;;;;;5054857;28;19932;-58
2022/10/31 04:33:32;;;;;;;;;;;12.00;99.90;;;;;;5056099;28;19935;-58
2022/10/31 04:35:59;;;;;;;;;;;11.90;99.90;;;;;;5055844;28;19935;-57
2022/10/31 04:38:26;;;;;;;;;;;11.90;99.90;;;;;;5056072;28;19928;-57
2022/10/31 04:40:52;;;;;;;;;;;11.90;99.90;;;;;;5054284;28;19976;-57
2022/10/31 04:43:20;;;;;;;;;;;11.90;99.90;;;;;;5055981;28;19929;-57
2022/10/31 04:45:47;;;;;;;;;;;11.90;99.90;;;;;;5055274;28;20680;-57
2022/10/31 04:48:13;;;;;;;;;;;11.80;99.90;;;;;;5054816;28;19928;-57
2022/10/31 04:50:40;;;;;;;;;;;11.80;99.90;;;;;;5055794;28;19933;-58
2022/10/31 04:53:07;;;;;;;;;;;11.80;99.90;;;;;;5055147;28;19928;-57
2022/10/31 04:55:33;;;;;;;;;;;11.80;99.90;;;;;;5056757;28;19935;-57
2022/10/31 04:58:00;;;;;;;;;;;11.70;99.90;;;;;;5059076;28;19935;-57
2022/10/31 05:00:28;;;;;;;;;;;11.80;99.90;;;;;;5058803;28;19932;-57
2022/10/31 05:02:56;;;;;;;;;;;11.80;99.90;;;;;;5059060;28;20354;-57
2022/10/31 05:05:23;;;;;;;;;;;11.70;99.90;;;;;;5058684;28;19933;-58
2022/10/31 05:07:50;;;;;;;;;;;11.60;99.90;;;;;;5059768;28;20703;-57
2022/10/31 05:10:18;;;;;;;;;;;11.70;99.90;;;;;;5058204;28;19936;-58
2022/10/31 05:12:48;;;;;;;;;;;11.60;99.90;;;;;;5057699;28;19929;-57
2022/10/31 05:15:15;;;;;;;;;;;11.50;99.90;;;;;;5058054;28;19935;-57
2022/10/31 05:17:43;;;;;;;;;;;11.40;99.90;;;;;;5058810;28;19940;-57
2022/10/31 05:20:10;;;;;;;;;;;11.40;99.90;;;;;;5058439;28;20332;-57
2022/10/31 05:22:37;;;;;;;;;;;11.30;99.90;;;;;;5057707;28;19929;-57
2022/10/31 05:25:03;;;;;;;;;;;11.30;99.90;;;;;;5058266;28;19933;-58
2022/10/31 05:27:30;;;;;;;;;;;11.30;99.90;;;;;;5058541;28;20465;-58
2022/10/31 05:29:57;;;;;;;;;;;11.30;99.90;;;;;;5058180;28;20045;-58
2022/10/31 05:32:23;;;;;;;;;;;11.30;99.90;;;;;;5055964;28;19936;-57
2022/10/31 05:34:51;;;;;;;;;;;11.40;99.90;;;;;;5058632;28;20323;-58
2022/10/31 05:37:18;;;;;;;;;;;11.40;99.90;;;;;;5057491;28;19929;-57
2022/10/31 05:39:44;;;;;;;;;;;11.50;99.90;;;;;;5056514;28;19976;-57
2022/10/31 05:42:11;;;;;;;;;;;11.50;99.90;;;;;;5057903;28;19933;-57
2022/10/31 05:44:38;;;;;;;;;;;11.60;99.90;;;;;;5057243;28;20510;-57
2022/10/31 05:47:04;;;;;;;;;;;11.60;99.90;;;;;;5058205;28;21147;-57
2022/10/31 05:49:31;;;;;;;;;;;11.60;99.90;;;;;;5057338;28;21063;-57
2022/10/31 05:51:59;;;;;;;;;;;11.60;99.90;;;;;;5057084;28;20308;-57
2022/10/31 05:54:26;;;;;;;;;;;11.70;99.90;;;;;;5059088;28;20384;-57
2022/10/31 05:56:52;;;;;;;;;;;11.70;99.90;;;;;;5058633;28;20614;-57
2022/10/31 05:59:19;;;;;;;;;;;11.70;99.90;;;;;;5059048;28;19933;-57
2022/10/31 06:01:46;;;;;;;;;;;11.70;99.90;;;;;;5057442;28;20344;-57
2022/10/31 06:04:13;;;;;;;;;;;11.70;99.90;;;;;;5058198;28;19934;-57
2022/10/31 06:06:39;;;;;;;;;;;11.70;99.90;;;;;;5056556;28;19942;-57
2022/10/31 06:09:07;;;;;;;;;;;11.80;99.90;;;;;;5057804;28;20036;-57
2022/10/31 06:11:34;;;;;;;;;;;11.80;99.90;;;;;;5057837;28;19928;-57
2022/10/31 06:14:01;;;;;;;;;;;11.80;99.90;;;;;;5057068;28;19974;-57
2022/10/31 06:16:27;;;;;;;;;;;11.80;99.90;;;;;;5056441;28;19928;-57
2022/10/31 06:18:54;;;;;;;;;;;11.80;99.90;;;;;;5054281;28;20008;-57
2022/10/31 06:21:20;;;;;;;;;;;11.80;99.90;;;;;;5054060;28;19935;-57
2022/10/31 06:23:47;;;;;;;;;;;11.70;99.90;;;;;;5054824;28;19940;-57
2022/10/31 06:26:15;;;;;;;;;;;11.50;99.90;;;;;;5054182;28;19933;-57
2022/10/31 06:28:42;;;;;;;;;;;11.50;99.90;;;;;;5053341;28;20176;-57
2022/10/31 06:31:08;;;;;;;;;;;11.40;99.90;;;;;;5054834;28;19929;-57
2022/10/31 06:33:35;;;;;;;;;;;11.30;99.90;;;;;;5055244;28;19928;-57
2022/10/31 06:36:02;;;;;;;;;;;11.30;99.90;;;;;;5053934;28;19928;-57
2022/10/31 06:38:29;;;;;;;;;;;11.20;99.90;;;;;;5054362;28;19933;-57
2022/10/31 06:40:55;;;;;;;;;;;11.10;99.90;;;;;;5054696;28;19929;-58
2022/10/31 06:43:23;;;;;;;;;;;11.10;99.90;;;;;;5054749;28;19928;-57
2022/10/31 06:45:50;;;;;;;;;;;11.20;99.90;;;;;;5053183;28;20526;-57
2022/10/31 06:48:16;;;;;;;;;;;11.20;99.90;;;;;;5054956;28;19967;-57
2022/10/31 06:50:43;;;;;;;;;;;11.20;99.90;;;;;;5053855;28;19932;-57
2022/10/31 06:53:10;;;;;;;;;;;11.20;99.90;;;;;;5055483;28;20308;-57
2022/10/31 06:55:36;;;;;;;;;;;11.20;99.90;;;;;;5053269;28;19935;-57
2022/10/31 06:58:03;;;;;;;;;;;11.20;99.90;;;;;;5055419;28;19933;-57
2022/10/31 07:00:31;;;;;;;;;;;11.10;99.90;;;;;;5056273;28;19929;-57
2022/10/31 07:02:59;;;;;;;;;;;11.00;99.90;;;;;;5057912;28;19935;-57
2022/10/31 07:05:26;;;;;;;;;;;11.00;99.90;;;;;;5056682;28;20958;-57
2022/10/31 07:07:54;;;;;;;;;;;11.00;99.90;;;;;;5056888;28;20661;-57
2022/10/31 07:10:20;;;;;;;;;;;11.00;99.90;;;;;;5056154;28;20767;-57
2022/10/31 07:12:47;;;;;;;;;;;10.80;99.90;;;;;;5057275;28;19928;-57
2022/10/31 07:15:14;;;;;;;;;;;11.00;99.90;;;;;;5056117;28;19928;-58
2022/10/31 07:17:42;;;;;;;;;;;11.00;99.90;;;;;;5056176;28;19932;-58
2022/10/31 07:20:09;;;;;;;;;;;11.00;99.90;;;;;;5055254;28;19933;-57
2022/10/31 07:22:36;;;;;;;;;;;11.00;99.90;;;;;;5057117;28;19932;-57
2022/10/31 07:25:03;;;;;;;;;;;11.00;99.90;;;;;;5053960;28;19929;-57
2022/10/31 07:27:35;;;;;;;;;;;11.00;99.90;;;;;;5056279;28;19933;-58
2022/10/31 07:30:02;;;;;;;;;;;11.00;99.90;;;;;;5057244;28;20311;-58
2022/10/31 07:32:29;;;;;;;;;;;11.20;99.90;;;;;;5055670;28;20022;-57
2022/10/31 07:34:57;;;;;;;;;;;11.20;99.90;;;;;;5056174;28;19935;-58
2022/10/31 07:37:23;;;;;;;;;;;11.20;99.90;;;;;;5055900;28;19944;-57
2022/10/31 07:39:50;;;;;;;;;;;11.30;99.90;;;;;;5052765;28;19929;-58
2022/10/31 07:42:16;;;;;;;;;;;11.40;99.90;;;;;;5053778;28;20031;-57
2022/10/31 07:44:43;;;;;;;;;;;11.50;99.90;;;;;;5057511;28;19928;-58
2022/10/31 07:47:10;;;;;;;;;;;11.50;99.90;;;;;;5046456;28;19932;-57
2022/10/31 07:49:36;;;;;;;;;;;11.60;99.90;;;;;;5048321;28;19955;-57
2022/10/31 07:52:04;;;;;;;;;;;11.60;99.90;;;;;;5050950;28;19928;-57
2022/10/31 07:54:33;;;;;;;;;;;11.70;99.90;;;;;;5049306;28;19928;-57
2022/10/31 07:56:59;;;;;;;;;;;11.80;99.90;;;;;;5048352;28;19933;-57
2022/10/31 07:59:27;;;;;;;;;;;11.80;99.90;;;;;;5049148;28;19928;-57
2022/10/31 08:01:53;;;;;;;;;;;11.90;99.90;;;;;;5049118;28;19935;-57
2022/10/31 08:04:20;;;;;;;;;;;12.00;99.90;;;;;;5049230;28;19928;-57
2022/10/31 08:06:48;;;;;;;;;;;12.10;99.90;;;;;;5049503;28;19972;-57
2022/10/31 08:09:16;;;;;;;;;;;12.10;99.90;;;;;;5051403;28;19991;-57
2022/10/31 08:11:42;;;;;;;;;;;12.20;99.90;;;;;;5049599;28;19936;-58
2022/10/31 08:14:09;;;;;;;;;;;12.20;99.90;;;;;;5048378;28;20658;-57
2022/10/31 08:16:36;;;;;;;;;;;12.30;99.90;;;;;;5048691;28;20541;-57
2022/10/31 08:19:02;;;;;;;;;;;12.40;99.90;;;;;;5049407;28;19929;-57
2022/10/31 08:21:29;;;;;;;;;;;12.50;99.90;;;;;;5050295;28;19951;-57
2022/10/31 08:23:56;;;;;;;;;;;12.50;99.90;;;;;;5049866;28;20326;-57
2022/10/31 08:26:24;;;;;;;;;;;12.60;99.90;;;;;;5049505;28;20373;-58
2022/10/31 08:28:51;;;;;;;;;;;12.60;99.90;;;;;;5050155;28;20380;-58
2022/10/31 08:31:18;;;;;;;;;;;12.70;99.90;;;;;;5052922;28;20054;-57
2022/10/31 08:33:44;;;;;;;;;;;12.80;99.90;;;;;;5053929;28;19928;-57
2022/10/31 08:36:14;;;;;;;;;;;12.80;99.90;;;;;;5053033;28;19932;-57
2022/10/31 08:38:41;;;;;;;;;;;12.80;99.90;;;;;;5051925;28;19933;-57
2022/10/31 08:41:08;;;;;;;;;;;12.90;99.90;;;;;;5054433;28;19929;-57
2022/10/31 08:43:36;;;;;;;;;;;12.90;99.90;;;;;;5052837;28;19928;-57
2022/10/31 08:46:03;;;;;;;;;;;12.90;99.90;;;;;;5053724;28;19936;-58
2022/10/31 08:48:29;;;;;;;;;;;13.00;99.90;;;;;;5051656;28;20407;-58
2022/10/31 08:50:57;;;;;;;;;;;13.10;99.90;;;;;;5050822;28;21720;-57
2022/10/31 08:53:23;;;;;;;;;;;13.10;99.90;;;;;;5052342;28;19935;-58
2022/10/31 08:55:50;;;;;;;;;;;13.10;99.90;;;;;;5051415;28;21669;-58
2022/10/31 08:58:17;;;;;;;;;;;13.20;99.90;;;;;;5053150;28;19934;-57
2022/10/31 09:00:46;;;;;;;;;;;13.30;99.90;;;;;;5051742;28;19929;-58
2022/10/31 09:03:13;;;;;;;;;;;13.30;99.90;;;;;;5052420;28;19932;-57
2022/10/31 09:05:40;;;;;;;;;;;13.30;99.90;;;;;;5053621;28;19933;-58
2022/10/31 09:08:07;;;;;;;;;;;13.40;99.90;;;;;;5054329;28;19936;-57
2022/10/31 09:10:34;;;;;;;;;;;13.40;99.90;;;;;;5052343;28;19929;-57
2022/10/31 09:13:05;;;;;;;;;;;13.50;99.90;;;;;;5049984;28;19928;-58
2022/10/31 09:15:32;;;;;;;;;;;13.60;99.90;;;;;;5049981;28;19943;-58
2022/10/31 09:18:01;;;;;;;;;;;13.60;99.90;;;;;;5051694;28;19940;-58
2022/10/31 09:20:28;;;;;;;;;;;13.70;99.90;;;;;;5049257;28;19937;-58
2022/10/31 09:22:58;;;;;;;;;;;13.70;99.90;;;;;;5051995;28;19951;-57
2022/10/31 09:25:25;;;;;;;;;;;13.70;99.90;;;;;;5048666;28;19944;-58
2022/10/31 09:27:52;;;;;;;;;;;13.80;99.90;;;;;;5051600;28;19929;-58
2022/10/31 09:30:18;;;;;;;;;;;13.90;99.90;;;;;;5050843;28;19936;-58
2022/10/31 09:32:45;;;;;;;;;;;14.00;99.90;;;;;;5051807;28;19932;-58
2022/10/31 09:35:13;;;;;;;;;;;14.10;99.90;;;;;;5053914;28;19944;-58
2022/10/31 09:37:40;;;;;;;;;;;14.20;99.90;;;;;;5053842;28;19929;-58
2022/10/31 09:40:07;;;;;;;;;;;14.30;99.90;;;;;;5052497;28;19933;-58
2022/10/31 09:42:43;;;;;;;;;;;14.40;99.90;;;;;;5052240;28;22259;-58
2022/10/31 09:45:14;;;;;;;;;;;14.50;99.90;;;;;;5050087;28;19940;-58
2022/10/31 09:47:47;;;;;;;;;;;14.60;99.90;;;;;;5052366;28;19929;-58
2022/10/31 09:50:18;;;;;;;;;;;14.70;99.90;;;;;;5052112;28;19994;-58
2022/10/31 09:52:48;;;;;;;;;;;14.80;99.90;;;;;;5051031;28;19971;-58
2022/10/31 09:55:16;;;;;;;;;;;14.90;99.90;;;;;;5050848;28;19944;-58
2022/10/31 09:57:43;;;;;;;;;;;15.00;99.90;;;;;;5050669;28;20367;-58
2022/10/31 10:00:15;;;;;;;;;;;15.20;99.90;;;;;;5051592;28;20229;-58
2022/10/31 10:02:44;;;;;;;;;;;15.30;99.90;;;;;;5049927;28;19929;-58
2022/10/31 10:05:12;;;;;;;;;;;15.40;99.90;;;;;;5051279;28;19933;-58
2022/10/31 10:07:44;;;;;;;;;;;15.50;99.90;;;;;;5048804;28;19928;-58
2022/10/31 10:10:14;;;;;;;;;;;15.50;99.90;;;;;;5049774;28;20002;-58
2022/10/31 10:12:45;;;;;;;;;;;15.50;99.90;;;;;;5049911;28;20201;-58
2022/10/31 10:15:25;;;;;;;;;;;15.60;99.90;;;;;;5049886;28;19991;-58
2022/10/31 10:17:54;;;;;;;;;;;15.60;99.90;;;;;;5052264;28;22049;-58
2022/10/31 10:20:26;;;;;;;;;;;15.70;99.90;;;;;;5049023;28;19964;-58
2022/10/31 10:22:56;;;;;;;;;;;15.80;99.90;;;;;;5050983;28;19929;-58
2022/10/31 10:25:24;;;;;;;;;;;15.80;99.90;;;;;;5050996;28;19940;-58
2022/10/31 10:27:55;;;;;;;;;;;16.00;99.90;;;;;;5050303;28;20399;-58
2022/10/31 10:30:23;;;;;;;;;;;16.00;99.90;;;;;;5048913;28;19936;-58
2022/10/31 10:32:51;;;;;;;;;;;16.10;99.90;;;;;;5049936;28;19936;-58
2022/10/31 10:35:21;;;;;;;;;;;16.10;99.90;;;;;;5049375;28;20583;-58
2022/10/31 10:37:49;;;;;;;;;;;16.10;99.90;;;;;;5049645;28;19928;-58
2022/10/31 10:40:19;;;;;;;;;;;16.00;99.90;;;;;;5049743;28;19935;-58
2022/10/31 10:48:26;;;;;;;;;;;15.90;99.90;;;;;;5049395;28;19928;-58
2022/10/31 10:50:53;;;;;;;;;;;15.80;99.90;;;;;;5049561;28;19929;-58
2022/10/31 10:53:31;;;;;;;;;;;15.70;99.90;;;;;;5048701;28;20289;-58
2022/10/31 10:56:04;;;;;;;;;;;15.60;99.90;;;;;;5048814;28;19933;-58
2022/10/31 10:58:31;;;;;;;;;;;15.50;99.90;;;;;;5049867;28;19935;-58
2022/10/31 11:00:57;;;;;;;;;;;15.50;99.90;;;;;;5050654;28;20326;-58
2022/10/31 11:03:24;;;;;;;;;;;15.40;99.90;;;;;;5050048;28;19928;-58
2022/10/31 11:05:51;;;;;;;;;;;15.40;99.90;;;;;;5050129;28;19932;-58
2022/10/31 11:08:24;;;;;;;;;;;15.40;99.90;;;;;;5049638;28;20513;-58
2022/10/31 11:10:57;;;;;;;;;;;15.40;99.90;;;;;;5050184;28;20392;-58
2022/10/31 11:13:28;;;;;;;;;;;15.30;99.90;;;;;;5050469;28;20449;-58
2022/10/31 11:15:57;;;;;;;;;;;15.50;99.90;;;;;;5050103;28;19967;-58
2022/10/31 11:18:26;;;;;;;;;;;15.50;99.90;;;;;;5049260;28;19935;-58
2022/10/31 11:20:53;;;;;;;;;;;15.50;99.90;;;;;;5049812;28;19929;-58
2022/10/31 11:23:21;;;;;;;;;;;15.50;99.90;;;;;;5049644;28;19935;-58
2022/10/31 11:25:51;;;;;;;;;;;15.60;99.90;;;;;;5049639;28;21756;-58
2022/10/31 11:28:18;;;;;;;;;;;15.60;99.90;;;;;;5049281;28;19936;-58
2022/10/31 11:30:47;;;;;;;;;;;15.60;99.90;;;;;;5051252;28;19928;-58
2022/10/31 11:33:18;;;;;;;;;;;15.60;99.90;;;;;;5051324;28;19955;-58
2022/10/31 11:35:45;;;;;;;;;;;15.60;99.90;;;;;;5051016;28;19933;-58
2022/10/31 11:38:16;;;;;;;;;;;15.60;99.90;;;;;;5052535;28;20313;-58
2022/10/31 11:40:51;;;;;;;;;;;15.50;99.90;;;;;;5051945;28;20485;-58
2022/10/31 11:43:19;;;;;;;;;;;15.50;99.90;;;;;;5050176;28;19935;-58
2022/10/31 11:45:47;;;;;;;;;;;15.50;99.90;;;;;;5049364;28;19932;-58
2022/10/31 11:48:17;;;;;;;;;;;15.50;99.90;;;;;;5047356;28;19928;-58
2022/10/31 11:50:48;;;;;;;;;;;15.50;99.90;;;;;;5046439;28;19929;-58
2022/10/31 11:53:16;;;;;;;;;;;15.40;99.90;;;;;;5048791;28;19959;-58
2022/10/31 11:55:43;;;;;;;;;;;15.50;99.90;;;;;;5050569;28;19940;-58
2022/10/31 11:58:20;;;;;;;;;;;15.60;99.90;;;;;;5049447;28;19928;-58
2022/10/31 12:00:51;;;;;;;;;;;15.60;99.90;;;;;;5047222;28;19928;-58
2022/10/31 12:03:27;;;;;;;;;;;15.60;99.90;;;;;;5049864;28;20453;-59
2022/10/31 12:05:56;;;;;;;;;;;15.60;99.90;;;;;;5050485;28;19932;-58
2022/10/31 12:08:25;;;;;;;;;;;15.60;99.90;;;;;;5053116;28;20507;-58
2022/10/31 12:10:59;;;;;;;;;;;15.60;99.90;;;;;;5050577;28;19928;-58
2022/10/31 12:13:31;;;;;;;;;;;15.70;99.90;;;;;;5051591;28;22015;-58
2022/10/31 12:16:01;;;;;;;;;;;15.60;99.90;;;;;;5048684;28;19933;-58
2022/10/31 12:18:37;;;;;;;;;;;15.60;99.90;;;;;;5050843;28;20400;-58
2022/10/31 12:21:20;;;;;;;;;;;15.60;99.90;;;;;;5050065;28;19929;-58
2022/10/31 12:23:52;;;;;;;;;;;15.60;99.90;;;;;;5051599;28;20394;-58
2022/10/31 12:26:22;;;;;;;;;;;15.60;99.90;;;;;;5051859;28;19932;-58
2022/10/31 12:29:01;;;;;;;;;;;15.60;99.90;;;;;;5051594;28;20315;-58
2022/10/31 12:31:35;;;;;;;;;;;15.70;99.90;;;;;;5052515;28;19950;-58
2022/10/31 12:34:13;;;;;;;;;;;15.70;99.90;;;;;;5052818;28;20269;-58
2022/10/31 12:36:44;;;;;;;;;;;15.70;99.90;;;;;;5051223;28;20690;-58
2022/10/31 12:39:20;;;;;;;;;;;15.70;99.90;;;;;;5053290;28;19933;-58
2022/10/31 12:41:50;;;;;;;;;;;15.70;99.90;;;;;;5052498;28;19935;-58
2022/10/31 12:44:27;;;;;;;;;;;15.70;99.90;;;;;;5054604;28;19929;-58
2022/10/31 12:47:02;;;;;;;;;;;15.70;99.90;;;;;;5058623;28;19933;-58
2022/10/31 12:49:37;;;;;;;;;;;15.70;99.90;;;;;;5057491;28;19932;-58
2022/10/31 12:52:12;;;;;;;;;;;15.60;99.90;;;;;;5057788;28;19936;-58
2022/10/31 12:54:48;;;;;;;;;;;15.60;99.90;;;;;;5055521;28;21612;-58
2022/10/31 12:57:22;;;;;;;;;;;15.60;99.90;;;;;;5057676;28;20412;-58
2022/10/31 12:59:50;;;;;;;;;;;15.60;99.90;;;;;;5056922;28;20484;-58
2022/10/31 13:02:21;;;;;;;;;;;15.60;99.90;;;;;;5056870;28;19928;-58
2022/10/31 13:04:49;;;;;;;;;;;15.60;99.90;;;;;;5058026;28;19939;-58
2022/10/31 13:07:20;;;;;;;;;;;15.70;99.90;;;;;;5057497;28;19933;-58
2022/10/31 13:09:50;;;;;;;;;;;15.60;99.90;;;;;;5056929;28;20410;-58
2022/10/31 13:12:19;;;;;;;;;;;15.60;99.90;;;;;;5056029;28;19928;-58
2022/10/31 13:14:47;;;;;;;;;;;15.60;99.90;;;;;;5057089;28;20453;-58
2022/10/31 13:17:16;;;;;;;;;;;15.60;99.90;;;;;;5056268;28;19932;-58
2022/10/31 13:19:45;;;;;;;;;;;15.60;99.90;;;;;;5056915;28;19928;-58
2022/10/31 13:22:17;;;;;;;;;;;15.60;99.90;;;;;;5056850;28;20547;-58
2022/10/31 13:24:53;;;;;;;;;;;15.70;99.90;;;;;;5056684;28;20340;-58
2022/10/31 13:27:22;;;;;;;;;;;15.60;99.90;;;;;;5055744;28;19970;-58
2022/10/31 13:29:52;;;;;;;;;;;15.60;99.90;;;;;;5056572;28;19929;-58
2022/10/31 13:32:19;;;;;;;;;;;15.60;99.90;;;;;;5056519;28;19929;-58
2022/10/31 13:34:48;;;;;;;;;;;15.60;99.90;;;;;;5056941;28;19929;-58
2022/10/31 13:37:19;;;;;;;;;;;15.60;99.90;;;;;;5057551;28;19932;-58
2022/10/31 13:39:50;;;;;;;;;;;15.60;99.90;;;;;;5056270;28;19928;-58
2022/10/31 13:42:20;;;;;;;;;;;15.60;99.90;;;;;;5056667;28;19928;-58
2022/10/31 13:44:47;;;;;;;;;;;15.60;99.90;;;;;;5054688;28;20379;-58
2022/10/31 13:47:24;;;;;;;;;;;15.60;99.90;;;;;;5055982;28;19933;-58
2022/10/31 13:49:52;;;;;;;;;;;15.60;99.90;;;;;;5056033;28;20065;-58
2022/10/31 13:52:24;;;;;;;;;;;15.60;99.90;;;;;;5058085;28;19951;-58
2022/10/31 13:54:55;;;;;;;;;;;15.60;99.90;;;;;;5058045;28;19936;-58
2022/10/31 13:57:31;;;;;;;;;;;15.60;99.90;;;;;;5057367;28;19933;-58
2022/10/31 13:59:59;;;;;;;;;;;15.50;99.90;;;;;;5056804;28;20498;-58
2022/10/31 14:02:27;;;;;;;;;;;15.60;99.90;;;;;;5055316;28;19935;-58
2022/10/31 14:04:58;;;;;;;;;;;15.60;99.90;;;;;;5056205;28;19936;-58
2022/10/31 14:07:25;;;;;;;;;;;15.60;99.90;;;;;;5056281;28;20051;-58
2022/10/31 14:09:55;;;;;;;;;;;15.60;99.90;;;;;;5056371;28;20504;-58
2022/10/31 14:12:25;;;;;;;;;;;15.50;99.90;;;;;;5055194;28;19936;-58
2022/10/31 14:14:53;;;;;;;;;;;15.60;99.90;;;;;;5055531;28;19932;-58
2022/10/31 14:17:24;;;;;;;;;;;15.50;99.90;;;;;;5055830;28;19939;-58
2022/10/31 14:20:02;;;;;;;;;;;15.50;99.90;;;;;;5055804;28;19942;-58
2022/10/31 14:22:30;;;;;;;;;;;15.50;99.90;;;;;;5056048;28;19935;-58
2022/10/31 14:24:57;;;;;;;;;;;15.50;99.90;;;;;;5054884;28;19936;-58
2022/10/31 14:27:34;;;;;;;;;;;15.50;99.90;;;;;;5055208;28;19932;-58
2022/10/31 14:30:08;;;;;;;;;;;15.40;99.90;;;;;;5055291;28;19936;-58